Time;durP1;ratioP1;P1;durP2;ratioP2;P2;SDS_P1;SDS_P2;PMS_P1;PMS_P2;Temp;Humidity;BMP_temperature;BMP_pressure;BME280_temperature;BME280_humidity;BME280_pressure;Samples;Min_cycle;Max_cycle;Signal;HPM_P1;HPM_P2
2023/04/21 00:01:23;;;;;;;38.50;18.13;;;;;;;;;;5030212;28;20998;-71
2023/04/21 00:03:49;;;;;;;35.43;16.90;;;;;;;;;;5029720;28;20025;-72
2023/04/21 00:06:21;;;;;;;34.78;16.55;;;;;;;;;;5032583;28;20295;-72
2023/04/21 00:08:46;;;;;;;36.20;17.33;;;;;;;;;;5024465;28;20403;-72
2023/04/21 00:11:13;;;;;;;33.60;17.73;;;;;;;;;;5036381;28;20025;-72
2023/04/21 00:13:39;;;;;;;35.85;18.92;;;;;;;;;;5030884;28;20067;-72
2023/04/21 00:16:04;;;;;;;33.78;17.25;;;;;;;;;;5035178;28;20047;-72
2023/04/21 00:18:29;;;;;;;32.92;16.67;;;;;;;;;;5032403;28;20017;-72
2023/04/21 00:20:55;;;;;;;39.78;17.75;;;;;;;;;;5032630;28;20013;-72
2023/04/21 00:23:20;;;;;;;40.35;18.85;;;;;;;;;;5029323;28;20056;-72
2023/04/21 00:25:45;;;;;;;37.25;17.77;;;;;;;;;;5032108;28;20026;-72
2023/04/21 00:28:10;;;;;;;34.43;16.63;;;;;;;;;;5030399;28;20024;-72
2023/04/21 00:30:36;;;;;;;36.17;18.27;;;;;;;;;;5030038;28;20411;-72
2023/04/21 00:33:01;;;;;;;34.03;17.47;;;;;;;;;;5030827;28;20276;-72
2023/04/21 00:35:26;;;;;;;39.80;17.87;;;;;;;;;;5030391;28;20381;-72
2023/04/21 00:37:51;;;;;;;36.72;19.17;;;;;;;;;;5031480;28;20283;-72
2023/04/21 00:40:16;;;;;;;38.47;18.10;;;;;;;;;;5030951;28;20041;-72
2023/04/21 00:42:41;;;;;;;40.53;17.85;;;;;;;;;;5030040;28;20033;-72
2023/04/21 00:45:07;;;;;;;37.40;18.35;;;;;;;;;;5030251;28;20112;-72
2023/04/21 00:47:32;;;;;;;38.38;19.73;;;;;;;;;;5027986;28;20021;-72
2023/04/21 00:49:58;;;;;;;38.85;18.52;;;;;;;;;;5029741;28;20099;-72
2023/04/21 00:52:23;;;;;;;38.75;19.45;;;;;;;;;;5028699;28;20540;-72
2023/04/21 00:54:49;;;;;;;42.50;19.42;;;;;;;;;;5030457;28;20022;-72
2023/04/21 00:57:14;;;;;;;41.60;19.63;;;;;;;;;;5030206;28;20048;-72
2023/04/21 00:59:39;;;;;;;37.42;18.30;;;;;;;;;;5024829;28;20037;-72
2023/04/21 01:02:05;;;;;;;40.45;20.48;;;;;;;;;;5028148;28;20025;-72
2023/04/21 01:04:37;;;;;;;40.53;19.90;;;;;;;;;;5029983;28;20395;-72
2023/04/21 01:07:03;;;;;;;42.25;20.70;;;;;;;;;;5028006;28;20025;-72
2023/04/21 01:09:28;;;;;;;41.38;18.98;;;;;;;;;;5028822;28;20036;-72
2023/04/21 01:12:04;;;;;;;43.85;19.60;;;;;;;;;;5028569;28;20071;-72
2023/04/21 01:14:29;;;;;;;36.90;18.48;;;;;;;;;;5029002;28;20033;-72
2023/04/21 01:16:55;;;;;;;42.97;19.42;;;;;;;;;;5029849;28;20100;-72
2023/04/21 01:19:21;;;;;;;49.25;20.40;;;;;;;;;;5028006;28;20425;-72
2023/04/21 01:21:48;;;;;;;41.67;19.38;;;;;;;;;;5027481;28;20025;-72
2023/04/21 01:24:13;;;;;;;47.05;20.50;;;;;;;;;;5032114;28;20022;-72
2023/04/21 01:26:38;;;;;;;43.55;20.17;;;;;;;;;;5030696;28;20018;-72
2023/04/21 01:29:03;;;;;;;48.10;20.43;;;;;;;;;;5029700;28;20026;-72
2023/04/21 01:31:28;;;;;;;45.80;19.83;;;;;;;;;;5031166;28;20768;-72
2023/04/21 01:33:54;;;;;;;41.25;20.33;;;;;;;;;;5028580;28;20033;-72
2023/04/21 01:36:19;;;;;;;44.63;19.50;;;;;;;;;;5029944;28;20024;-71
2023/04/21 01:38:44;;;;;;;36.00;19.02;;;;;;;;;;5032191;28;20026;-71
2023/04/21 01:41:10;;;;;;;41.15;20.20;;;;;;;;;;5029832;28;20036;-71
2023/04/21 01:43:36;;;;;;;37.85;18.52;;;;;;;;;;5031812;28;20036;-71
2023/04/21 01:46:01;;;;;;;38.90;18.45;;;;;;;;;;5027007;28;20136;-72
2023/04/21 01:48:26;;;;;;;38.97;19.23;;;;;;;;;;5027197;28;20016;-72
2023/04/21 01:50:51;;;;;;;36.88;18.80;;;;;;;;;;5028062;28;20021;-72
2023/04/21 01:53:16;;;;;;;39.00;19.47;;;;;;;;;;5027436;28;20033;-72
2023/04/21 01:55:41;;;;;;;35.90;17.30;;;;;;;;;;5043601;28;20257;-71
2023/04/21 01:58:07;;;;;;;34.60;18.03;;;;;;;;;;5029861;28;20268;-71
2023/04/21 02:00:32;;;;;;;31.63;15.75;;;;;;;;;;5028544;28;20276;-72
2023/04/21 02:02:57;;;;;;;37.27;18.47;;;;;;;;;;5029010;28;20502;-72
2023/04/21 02:05:22;;;;;;;36.35;17.95;;;;;;;;;;5029478;28;20284;-72
2023/04/21 02:07:47;;;;;;;34.10;17.33;;;;;;;;;;5026134;28;20020;-72
2023/04/21 02:10:13;;;;;;;39.83;18.00;;;;;;;;;;5029743;28;20021;-72
2023/04/21 02:12:38;;;;;;;38.53;18.30;;;;;;;;;;5028381;28;20283;-72
2023/04/21 02:15:04;;;;;;;36.47;18.33;;;;;;;;;;5028080;28;20025;-72
2023/04/21 02:17:29;;;;;;;30.88;16.17;;;;;;;;;;5027689;28;20276;-72
2023/04/21 02:19:54;;;;;;;32.78;17.63;;;;;;;;;;5029100;28;20033;-72
2023/04/21 02:22:21;;;;;;;36.47;17.50;;;;;;;;;;5023525;28;20014;-72
2023/04/21 02:24:46;;;;;;;40.90;18.05;;;;;;;;;;5028815;28;20280;-72
2023/04/21 02:27:11;;;;;;;43.08;18.48;;;;;;;;;;5030678;28;20482;-72
2023/04/21 02:29:37;;;;;;;45.40;19.17;;;;;;;;;;5033585;28;20080;-72
2023/04/21 02:32:02;;;;;;;43.47;19.25;;;;;;;;;;5032559;28;20025;-72
2023/04/21 02:34:27;;;;;;;41.83;19.17;;;;;;;;;;5031935;28;20025;-72
2023/04/21 02:36:52;;;;;;;37.55;19.30;;;;;;;;;;5031751;28;20299;-72
2023/04/21 02:39:18;;;;;;;39.60;18.42;;;;;;;;;;5030474;28;20021;-72
2023/04/21 02:41:43;;;;;;;38.05;19.27;;;;;;;;;;5032087;28;20018;-71
2023/04/21 02:44:08;;;;;;;40.77;18.83;;;;;;;;;;5032238;28;20101;-72
2023/04/21 02:46:33;;;;;;;42.87;20.03;;;;;;;;;;5030873;28;20664;-71
2023/04/21 02:48:58;;;;;;;38.97;18.20;;;;;;;;;;5031591;28;20393;-71
2023/04/21 02:51:23;;;;;;;36.30;19.10;;;;;;;;;;5032445;28;20810;-71
2023/04/21 02:53:48;;;;;;;35.50;18.13;;;;;;;;;;5030818;28;20304;-71
2023/04/21 02:56:14;;;;;;;38.40;19.00;;;;;;;;;;5032862;28;20272;-72
2023/04/21 02:58:39;;;;;;;41.45;18.63;;;;;;;;;;5034804;28;20279;-71
2023/04/21 03:01:04;;;;;;;38.47;18.83;;;;;;;;;;5032959;28;20060;-71
2023/04/21 03:03:30;;;;;;;37.53;17.77;;;;;;;;;;5032436;28;20475;-71
2023/04/21 03:06:00;;;;;;;39.67;20.50;;;;;;;;;;5031043;28;20025;-71
2023/04/21 03:08:25;;;;;;;41.92;19.52;;;;;;;;;;5030471;28;20040;-71
2023/04/21 03:10:50;;;;;;;40.50;18.90;;;;;;;;;;5029961;28;20018;-71
2023/04/21 03:13:16;;;;;;;39.83;18.83;;;;;;;;;;5035020;28;20022;-71
2023/04/21 03:15:41;;;;;;;42.55;20.85;;;;;;;;;;5030036;28;20962;-72
2023/04/21 03:18:06;;;;;;;43.00;20.92;;;;;;;;;;5031116;28;20113;-72
2023/04/21 03:20:31;;;;;;;42.37;20.03;;;;;;;;;;5031174;28;20084;-72
2023/04/21 03:22:56;;;;;;;40.40;19.10;;;;;;;;;;5030982;28;20307;-71
2023/04/21 03:25:21;;;;;;;44.33;19.27;;;;;;;;;;5032897;28;20807;-71
2023/04/21 03:27:47;;;;;;;41.78;20.23;;;;;;;;;;5032222;28;20252;-71
2023/04/21 03:30:12;;;;;;;42.67;19.43;;;;;;;;;;5032665;28;20481;-71
2023/04/21 03:32:37;;;;;;;40.33;18.92;;;;;;;;;;5030511;28;20318;-71
2023/04/21 03:35:02;;;;;;;40.47;19.70;;;;;;;;;;5031654;28;20071;-72
2023/04/21 03:37:28;;;;;;;41.53;20.55;;;;;;;;;;5030959;28;20037;-72
2023/04/21 03:39:53;;;;;;;38.73;19.20;;;;;;;;;;5028919;28;20106;-72
2023/04/21 03:42:18;;;;;;;46.07;20.60;;;;;;;;;;5028689;28;20645;-71
2023/04/21 03:44:43;;;;;;;42.37;19.80;;;;;;;;;;5031288;28;20513;-71
2023/04/21 03:47:08;;;;;;;47.47;20.07;;;;;;;;;;5033655;28;20329;-71
2023/04/21 03:49:33;;;;;;;39.78;20.00;;;;;;;;;;5028618;28;20272;-71
2023/04/21 03:51:59;;;;;;;48.25;21.67;;;;;;;;;;5031177;28;20455;-72
2023/04/21 03:54:24;;;;;;;42.83;21.02;;;;;;;;;;5032872;28;20501;-72
2023/04/21 03:56:49;;;;;;;51.05;22.13;;;;;;;;;;5029695;28;20035;-72
2023/04/21 03:59:14;;;;;;;43.83;20.33;;;;;;;;;;5034202;28;20091;-72
2023/04/21 04:01:41;;;;;;;47.80;19.90;;;;;;;;;;5028095;28;20029;-72
2023/04/21 04:04:06;;;;;;;47.90;22.95;;;;;;;;;;5028594;28;20653;-72
2023/04/21 04:06:31;;;;;;;42.80;20.37;;;;;;;;;;5026190;28;20040;-72
2023/04/21 04:08:57;;;;;;;43.20;20.92;;;;;;;;;;5028648;28;20311;-72
2023/04/21 04:11:22;;;;;;;47.83;22.80;;;;;;;;;;5030192;28;20489;-72
2023/04/21 04:13:47;;;;;;;50.38;22.23;;;;;;;;;;5026737;28;20079;-72
2023/04/21 04:16:12;;;;;;;47.53;22.70;;;;;;;;;;5028120;28;20026;-72
2023/04/21 04:18:38;;;;;;;44.00;20.77;;;;;;;;;;5028028;28;20276;-72
2023/04/21 04:21:06;;;;;;;49.55;22.02;;;;;;;;;;5030478;28;20024;-72
2023/04/21 04:23:32;;;;;;;47.30;21.83;;;;;;;;;;5029272;28;20549;-72
2023/04/21 04:25:57;;;;;;;48.28;21.10;;;;;;;;;;5031226;28;20026;-72
2023/04/21 04:28:22;;;;;;;41.00;19.73;;;;;;;;;;5029212;28;20021;-72
2023/04/21 04:30:47;;;;;;;42.97;21.17;;;;;;;;;;5029915;28;20268;-72
2023/04/21 04:33:12;;;;;;;45.93;21.23;;;;;;;;;;5026288;28;20351;-72
2023/04/21 04:35:38;;;;;;;46.00;21.20;;;;;;;;;;5030401;28;20625;-72
2023/04/21 04:38:03;;;;;;;44.17;21.40;;;;;;;;;;5030686;28;20025;-72
2023/04/21 04:40:29;;;;;;;48.88;20.33;;;;;;;;;;5029074;28;20395;-72
2023/04/21 04:42:54;;;;;;;46.53;21.90;;;;;;;;;;5025390;28;20675;-72
2023/04/21 04:45:21;;;;;;;49.10;21.30;;;;;;;;;;5030780;28;20076;-72
2023/04/21 04:47:46;;;;;;;49.08;21.00;;;;;;;;;;5026641;28;20256;-72
2023/04/21 04:50:11;;;;;;;43.25;19.88;;;;;;;;;;5028797;28;20483;-72
2023/04/21 04:52:37;;;;;;;44.83;20.25;;;;;;;;;;5031231;28;20025;-72
2023/04/21 04:55:02;;;;;;;43.92;20.27;;;;;;;;;;5028007;28;20099;-72
2023/04/21 04:57:29;;;;;;;43.35;19.50;;;;;;;;;;5019525;28;20021;-72
2023/04/21 04:59:55;;;;;;;46.85;21.27;;;;;;;;;;5025987;28;20033;-72
2023/04/21 05:02:21;;;;;;;48.88;21.42;;;;;;;;;;5026396;28;20024;-72
2023/04/21 05:04:46;;;;;;;45.05;20.30;;;;;;;;;;5022089;28;20478;-72
2023/04/21 05:07:11;;;;;;;46.63;20.17;;;;;;;;;;5026603;28;20021;-72
2023/04/21 05:09:36;;;;;;;50.17;20.30;;;;;;;;;;5027365;28;20268;-72
2023/04/21 05:12:02;;;;;;;43.67;19.73;;;;;;;;;;5027174;28;20018;-72
2023/04/21 05:14:27;;;;;;;47.15;20.98;;;;;;;;;;5024575;28;20296;-72
2023/04/21 05:16:52;;;;;;;48.43;20.87;;;;;;;;;;5027099;28;20116;-72
2023/04/21 05:19:17;;;;;;;41.80;19.40;;;;;;;;;;5025906;28;20276;-72
2023/04/21 05:21:42;;;;;;;44.20;20.47;;;;;;;;;;5026139;28;20268;-72
2023/04/21 05:24:07;;;;;;;37.67;19.37;;;;;;;;;;5023898;28;20713;-71
2023/04/21 05:26:33;;;;;;;44.57;19.23;;;;;;;;;;5027458;28;20280;-71
2023/04/21 05:28:58;;;;;;;39.80;18.02;;;;;;;;;;5026182;28;20264;-71
2023/04/21 05:31:23;;;;;;;39.13;17.67;;;;;;;;;;5027990;28;20068;-71
2023/04/21 05:33:49;;;;;;;35.63;16.88;;;;;;;;;;5026377;28;20787;-71
2023/04/21 05:36:14;;;;;;;51.03;19.45;;;;;;;;;;5027395;28;20109;-71
2023/04/21 05:38:39;;;;;;;39.10;17.77;;;;;;;;;;5024372;28;20023;-71
2023/04/21 05:41:05;;;;;;;42.37;19.27;;;;;;;;;;5028534;28;20541;-71
2023/04/21 05:43:33;;;;;;;41.95;17.05;;;;;;;;;;5025315;28;20268;-71
2023/04/21 05:45:59;;;;;;;41.78;16.17;;;;;;;;;;5028643;28;20024;-70
2023/04/21 05:48:24;;;;;;;32.45;16.42;;;;;;;;;;5023685;28;20029;-71
2023/04/21 05:50:49;;;;;;;39.40;17.05;;;;;;;;;;5021563;28;20080;-71
2023/04/21 05:53:15;;;;;;;37.92;18.80;;;;;;;;;;5025924;28;20048;-71
2023/04/21 05:55:40;;;;;;;36.35;17.17;;;;;;;;;;5025900;28;20314;-72
2023/04/21 05:58:05;;;;;;;35.97;16.97;;;;;;;;;;5031654;28;20026;-72
2023/04/21 06:00:30;;;;;;;40.05;17.33;;;;;;;;;;5027929;28;20335;-70
2023/04/21 06:02:55;;;;;;;42.85;18.00;;;;;;;;;;5031288;28;20478;-71
2023/04/21 06:05:21;;;;;;;36.20;16.75;;;;;;;;;;5030663;28;20534;-71
2023/04/21 06:07:46;;;;;;;38.58;17.83;;;;;;;;;;5031524;28;20010;-72
2023/04/21 06:10:12;;;;;;;38.93;17.83;;;;;;;;;;5034680;28;20075;-72
2023/04/21 06:12:37;;;;;;;37.13;18.33;;;;;;;;;;5031930;28;20280;-71
2023/04/21 06:15:02;;;;;;;42.80;18.47;;;;;;;;;;5029932;28;20040;-71
2023/04/21 06:17:28;;;;;;;38.53;18.40;;;;;;;;;;5028960;28;20276;-71
2023/04/21 06:19:54;;;;;;;39.72;18.77;;;;;;;;;;5030674;28;20021;-71
2023/04/21 06:22:20;;;;;;;43.85;19.65;;;;;;;;;;5026552;28;20020;-71
2023/04/21 06:24:45;;;;;;;47.08;20.73;;;;;;;;;;5032546;28;20037;-71
2023/04/21 06:27:13;;;;;;;38.47;19.20;;;;;;;;;;5032323;28;20021;-71
2023/04/21 06:29:38;;;;;;;37.13;18.00;;;;;;;;;;5027774;28;20032;-71
2023/04/21 06:32:03;;;;;;;38.15;19.45;;;;;;;;;;5032758;28;20025;-71
2023/04/21 06:34:29;;;;;;;46.33;20.50;;;;;;;;;;5031528;28;20026;-71
2023/04/21 06:36:54;;;;;;;40.90;18.77;;;;;;;;;;5032008;28;20030;-71
2023/04/21 06:39:19;;;;;;;45.60;20.02;;;;;;;;;;5035767;28;20286;-71
2023/04/21 06:41:44;;;;;;;42.28;20.00;;;;;;;;;;5034389;28;20108;-71
2023/04/21 06:44:12;;;;;;;43.08;19.23;;;;;;;;;;5033257;28;20017;-71
2023/04/21 06:46:38;;;;;;;40.42;19.58;;;;;;;;;;5031871;28;20091;-71
2023/04/21 06:49:03;;;;;;;42.30;19.38;;;;;;;;;;5028543;28;20017;-71
2023/04/21 06:51:28;;;;;;;45.87;21.00;;;;;;;;;;5029688;28;20033;-71
2023/04/21 06:53:53;;;;;;;42.60;20.75;;;;;;;;;;5030436;28;20602;-71
2023/04/21 06:56:19;;;;;;;41.47;19.23;;;;;;;;;;5028798;28;20466;-71
2023/04/21 06:58:45;;;;;;;39.58;18.85;;;;;;;;;;5036255;28;20684;-71
2023/04/21 07:01:11;;;;;;;40.38;19.30;;;;;;;;;;5031940;28;20625;-71
2023/04/21 07:03:36;;;;;;;45.00;19.92;;;;;;;;;;5033165;28;20036;-71
2023/04/21 07:06:01;;;;;;;39.27;19.10;;;;;;;;;;5033880;28;20534;-71
2023/04/21 07:08:26;;;;;;;45.67;21.30;;;;;;;;;;5032611;28;20263;-71
2023/04/21 07:10:51;;;;;;;43.37;21.13;;;;;;;;;;5029275;28;20579;-71
2023/04/21 07:13:16;;;;;;;51.23;22.10;;;;;;;;;;5034185;28;20306;-71
2023/04/21 07:15:42;;;;;;;43.22;21.48;;;;;;;;;;5032006;28;20271;-71
2023/04/21 07:18:07;;;;;;;43.15;21.10;;;;;;;;;;5031623;28;20022;-71
2023/04/21 07:20:32;;;;;;;40.70;19.30;;;;;;;;;;5034565;28;20506;-71
2023/04/21 07:22:57;;;;;;;39.67;19.27;;;;;;;;;;5035798;28;20303;-71
2023/04/21 07:25:23;;;;;;;42.70;19.25;;;;;;;;;;5032343;28;20662;-71
2023/04/21 07:27:48;;;;;;;32.92;15.77;;;;;;;;;;5036175;28;20021;-71
2023/04/21 07:30:13;;;;;;;39.75;18.30;;;;;;;;;;5036258;28;20025;-71
2023/04/21 07:32:39;;;;;;;36.40;18.00;;;;;;;;;;5031444;28;20017;-71
2023/04/21 07:35:05;;;;;;;30.75;14.73;;;;;;;;;;5035150;28;20033;-71
2023/04/21 07:37:30;;;;;;;35.00;17.42;;;;;;;;;;5035139;28;20021;-71
2023/04/21 07:39:55;;;;;;;39.58;18.95;;;;;;;;;;5032819;28;20021;-71
2023/04/21 07:42:21;;;;;;;39.37;17.77;;;;;;;;;;5031831;28;20025;-71
2023/04/21 07:44:47;;;;;;;34.70;16.95;;;;;;;;;;5031405;28;20629;-71
2023/04/21 07:47:12;;;;;;;35.30;16.95;;;;;;;;;;5030803;28;20029;-71
2023/04/21 07:49:38;;;;;;;39.03;16.98;;;;;;;;;;5030728;28;20092;-71
2023/04/21 07:52:03;;;;;;;38.57;18.43;;;;;;;;;;5026729;28;20084;-71
2023/04/21 07:54:28;;;;;;;40.70;19.95;;;;;;;;;;5033533;28;20366;-71
2023/04/21 07:56:53;;;;;;;41.17;19.80;;;;;;;;;;5033095;28;20033;-71
2023/04/21 07:59:18;;;;;;;38.70;17.80;;;;;;;;;;5030785;28;20315;-71
2023/04/21 08:01:44;;;;;;;41.87;17.57;;;;;;;;;;5031370;28;20275;-71
2023/04/21 08:04:09;;;;;;;36.80;15.40;;;;;;;;;;5031556;28;20292;-70
2023/04/21 08:06:34;;;;;;;34.70;17.10;;;;;;;;;;5032808;28;20025;-70
2023/04/21 08:08:59;;;;;;;38.55;19.48;;;;;;;;;;5029423;28;20516;-70
2023/04/21 08:11:25;;;;;;;36.17;18.17;;;;;;;;;;5032999;28;20048;-70
2023/04/21 08:13:50;;;;;;;38.17;17.90;;;;;;;;;;5030624;28;20017;-70
2023/04/21 08:16:15;;;;;;;32.47;17.95;;;;;;;;;;5032848;28;20017;-70
2023/04/21 08:18:40;;;;;;;36.90;17.88;;;;;;;;;;5029638;28;20032;-70
2023/04/21 08:21:06;;;;;;;31.83;18.15;;;;;;;;;;5031879;28;20481;-70
2023/04/21 08:23:31;;;;;;;35.97;17.00;;;;;;;;;;5029117;28;20029;-70
2023/04/21 08:25:56;;;;;;;37.25;18.42;;;;;;;;;;5030813;28;20312;-70
2023/04/21 08:28:21;;;;;;;39.75;18.48;;;;;;;;;;5026396;28;20025;-70
2023/04/21 08:30:46;;;;;;;36.83;19.38;;;;;;;;;;5032194;28;20063;-70
2023/04/21 08:33:12;;;;;;;37.77;19.53;;;;;;;;;;5029399;28;20075;-70
2023/04/21 08:35:38;;;;;;;33.10;18.33;;;;;;;;;;5029199;28;21057;-70
2023/04/21 08:38:03;;;;;;;38.90;19.45;;;;;;;;;;5031444;28;20029;-70
2023/04/21 08:40:31;;;;;;;41.17;19.95;;;;;;;;;;5029802;28;20013;-70
2023/04/21 08:42:56;;;;;;;45.22;20.30;;;;;;;;;;5026749;28;20037;-68
2023/04/21 08:45:21;;;;;;;37.67;18.23;;;;;;;;;;5031413;28;20038;-67
2023/04/21 08:47:48;;;;;;;36.90;19.20;;;;;;;;;;5033726;28;20268;-67
2023/04/21 08:50:13;;;;;;;38.28;19.50;;;;;;;;;;5028557;28;20671;-69
2023/04/21 08:52:38;;;;;;;37.22;19.88;;;;;;;;;;5028357;28;20013;-68
2023/04/21 08:55:06;;;;;;;36.60;19.58;;;;;;;;;;5028541;28;20285;-67
2023/04/21 08:57:31;;;;;;;41.58;20.73;;;;;;;;;;5029238;28;20047;-68
2023/04/21 08:59:56;;;;;;;36.72;18.08;;;;;;;;;;5029119;28;20029;-66
2023/04/21 09:02:21;;;;;;;37.20;17.37;;;;;;;;;;5026733;28;20105;-69
2023/04/21 09:04:47;;;;;;;37.28;18.85;;;;;;;;;;5031665;28;20333;-67
2023/04/21 09:07:32;;;;;;;33.72;19.20;;;;;;;;;;5033813;28;20018;-69
2023/04/21 09:09:59;;;;;;;36.53;17.45;;;;;;;;;;5027425;28;20025;-69
2023/04/21 09:12:24;;;;;;;33.95;18.02;;;;;;;;;;5026550;28;20021;-71
2023/04/21 09:14:50;;;;;;;40.33;20.35;;;;;;;;;;5028201;28;20096;-69
2023/04/21 09:17:15;;;;;;;34.05;16.08;;;;;;;;;;5033628;28;20064;-68
2023/04/21 09:19:41;;;;;;;41.83;19.50;;;;;;;;;;5032753;28;20516;-67
2023/04/21 09:22:06;;;;;;;41.05;18.00;;;;;;;;;;5030451;28;20033;-69
2023/04/21 09:24:31;;;;;;;39.33;18.88;;;;;;;;;;5029823;28;20025;-67
2023/04/21 09:26:57;;;;;;;34.88;19.13;;;;;;;;;;5030751;28;20096;-68
2023/04/21 09:29:23;;;;;;;34.25;17.77;;;;;;;;;;5031919;28;20017;-67
2023/04/21 09:31:48;;;;;;;36.50;18.23;;;;;;;;;;5030900;28;20030;-67
2023/04/21 09:34:21;;;;;;;36.53;19.38;;;;;;;;;;5030370;28;20073;-67
2023/04/21 09:36:47;;;;;;;41.30;18.15;;;;;;;;;;5029381;28;20017;-68
2023/04/21 09:39:12;;;;;;;35.95;17.83;;;;;;;;;;5032073;28;20475;-67
2023/04/21 09:41:37;;;;;;;24.30;9.02;;;;;;;;;;5035228;28;20029;-67
2023/04/21 09:44:03;;;;;;;35.92;18.92;;;;;;;;;;5033403;28;20022;-67
2023/04/21 09:46:31;;;;;;;37.63;18.40;;;;;;;;;;5034851;28;20104;-68
2023/04/21 09:48:59;;;;;;;38.92;18.55;;;;;;;;;;5032790;28;20025;-67
2023/04/21 09:51:25;;;;;;;42.83;19.55;;;;;;;;;;5031663;28;20029;-68
2023/04/21 09:53:52;;;;;;;35.88;18.02;;;;;;;;;;5029180;28;20671;-67
2023/04/21 09:56:19;;;;;;;32.92;18.00;;;;;;;;;;5030468;28;20140;-68
2023/04/21 09:58:52;;;;;;;35.38;15.27;;;;;;;;;;5034064;28;20025;-68
2023/04/21 10:01:18;;;;;;;36.08;18.58;;;;;;;;;;5036972;28;20059;-68
2023/04/21 10:03:45;;;;;;;38.50;16.90;;;;;;;;;;5033694;28;20462;-68
2023/04/21 10:06:10;;;;;;;34.63;17.58;;;;;;;;;;5026924;28;20377;-67
2023/04/21 10:08:36;;;;;;;33.90;16.10;;;;;;;;;;5030417;28;20108;-69
2023/04/21 10:11:02;;;;;;;31.40;16.52;;;;;;;;;;5031472;28;20028;-67
2023/04/21 10:13:28;;;;;;;29.40;15.80;;;;;;;;;;5034015;28;20025;-67
2023/04/21 10:16:02;;;;;;;24.35;12.10;;;;;;;;;;5031129;28;20119;-67
2023/04/21 10:18:28;;;;;;;37.95;19.23;;;;;;;;;;5036612;28;20021;-67
2023/04/21 10:20:54;;;;;;;34.90;15.75;;;;;;;;;;5028872;28;20103;-71
2023/04/21 10:23:25;;;;;;;31.08;16.35;;;;;;;;;;5031807;28;20029;-69
2023/04/21 10:25:51;;;;;;;29.48;13.73;;;;;;;;;;5031379;28;20018;-71
2023/04/21 10:28:19;;;;;;;30.23;11.70;;;;;;;;;;5033576;28;20034;-69
2023/04/21 10:30:44;;;;;;;27.05;14.05;;;;;;;;;;5031623;28;20661;-69
2023/04/21 10:33:10;;;;;;;19.02;9.65;;;;;;;;;;5037482;28;20028;-67
2023/04/21 10:35:53;;;;;;;26.20;12.35;;;;;;;;;;5032962;28;20128;-68
2023/04/21 10:38:32;;;;;;;25.38;12.75;;;;;;;;;;5031996;28;20506;-69
2023/04/21 10:41:17;;;;;;;29.88;13.93;;;;;;;;;;5031963;28;20033;-68
2023/04/21 10:43:46;;;;;;;15.23;6.70;;;;;;;;;;5031415;28;20041;-67
2023/04/21 10:46:30;;;;;;;16.25;7.25;;;;;;;;;;5031475;28;20032;-68
2023/04/21 10:49:03;;;;;;;17.42;6.78;;;;;;;;;;5033498;28;20028;-70
2023/04/21 10:51:29;;;;;;;25.02;12.48;;;;;;;;;;5032286;28;20025;-70
2023/04/21 10:53:55;;;;;;;24.20;10.65;;;;;;;;;;5031538;28;20013;-70
2023/04/21 10:56:21;;;;;;;10.07;5.07;;;;;;;;;;5028542;28;20076;-72
2023/04/21 10:58:48;;;;;;;13.55;6.97;;;;;;;;;;5033780;28;20049;-68
2023/04/21 11:01:13;;;;;;;17.60;8.38;;;;;;;;;;5030437;28;20558;-68
2023/04/21 11:03:38;;;;;;;20.77;11.73;;;;;;;;;;5031038;28;20105;-73
2023/04/21 11:06:13;;;;;;;17.25;7.38;;;;;;;;;;5033906;28;20294;-68
2023/04/21 11:08:53;;;;;;;20.45;10.82;;;;;;;;;;5035438;28;20450;-68
2023/04/21 11:11:26;;;;;;;19.48;11.10;;;;;;;;;;5026253;28;20096;-67
2023/04/21 11:13:52;;;;;;;25.25;12.88;;;;;;;;;;5034457;28;20018;-69
2023/04/21 11:16:18;;;;;;;22.45;10.57;;;;;;;;;;5031936;28;20017;-68
2023/04/21 11:18:44;;;;;;;27.83;13.23;;;;;;;;;;5029533;28;20060;-68
2023/04/21 11:21:16;;;;;;;20.17;9.38;;;;;;;;;;5035909;28;20414;-70
2023/04/21 11:23:49;;;;;;;22.42;12.27;;;;;;;;;;5028206;28;20132;-68
2023/04/21 11:26:14;;;;;;;17.83;9.90;;;;;;;;;;5029705;28;20029;-70
2023/04/21 11:28:40;;;;;;;16.67;8.25;;;;;;;;;;5031746;28;20769;-71
2023/04/21 11:31:06;;;;;;;17.05;9.65;;;;;;;;;;5031655;28;20093;-68
2023/04/21 11:33:35;;;;;;;21.27;9.77;;;;;;;;;;5033669;28;20643;-69
2023/04/21 11:36:02;;;;;;;19.67;8.68;;;;;;;;;;5032828;28;20018;-68
2023/04/21 11:38:35;;;;;;;19.05;10.43;;;;;;;;;;5030992;28;20026;-68
2023/04/21 11:41:00;;;;;;;19.27;10.75;;;;;;;;;;5030325;28;20033;-68
2023/04/21 11:43:25;;;;;;;19.60;10.50;;;;;;;;;;5029768;28;20021;-68
2023/04/21 11:45:50;;;;;;;26.40;11.47;;;;;;;;;;5029984;28;20409;-68
2023/04/21 11:48:16;;;;;;;20.70;10.20;;;;;;;;;;5038578;28;20018;-68
2023/04/21 11:50:45;;;;;;;19.63;10.25;;;;;;;;;;5029891;28;20387;-69
2023/04/21 11:53:12;;;;;;;14.50;5.97;;;;;;;;;;5028264;28;20036;-68
2023/04/21 11:55:40;;;;;;;13.07;6.97;;;;;;;;;;5035756;28;20024;-69
2023/04/21 11:58:06;;;;;;;18.17;8.88;;;;;;;;;;5028995;28;20482;-69
2023/04/21 12:00:31;;;;;;;16.48;7.32;;;;;;;;;;5029596;28;20033;-69
2023/04/21 12:02:57;;;;;;;15.10;7.37;;;;;;;;;;5029706;28;20026;-68
2023/04/21 12:05:22;;;;;;;17.27;9.45;;;;;;;;;;5032240;28;20412;-68
2023/04/21 12:07:48;;;;;;;16.13;9.43;;;;;;;;;;5031177;28;20021;-70
2023/04/21 12:10:16;;;;;;;19.67;9.32;;;;;;;;;;5031225;28;20024;-69
2023/04/21 12:12:41;;;;;;;14.73;6.72;;;;;;;;;;5029045;28;20659;-69
2023/04/21 12:15:07;;;;;;;19.73;9.70;;;;;;;;;;5031369;28;20027;-68
2023/04/21 12:17:38;;;;;;;16.92;9.45;;;;;;;;;;5033331;28;20041;-69
2023/04/21 12:20:05;;;;;;;21.27;11.73;;;;;;;;;;5031005;28;20092;-68
2023/04/21 12:22:30;;;;;;;17.98;10.60;;;;;;;;;;5029111;28;20025;-69
2023/04/21 12:24:55;;;;;;;23.23;10.83;;;;;;;;;;5036178;28;20028;-71
2023/04/21 12:27:20;;;;;;;17.83;9.13;;;;;;;;;;5030527;28;20115;-70
2023/04/21 12:29:45;;;;;;;20.33;10.97;;;;;;;;;;5028802;28;20040;-71
2023/04/21 12:32:11;;;;;;;15.10;9.00;;;;;;;;;;5029251;28;20264;-71
2023/04/21 12:34:36;;;;;;;21.37;11.37;;;;;;;;;;5031164;28;20032;-68
2023/04/21 12:37:01;;;;;;;17.45;10.38;;;;;;;;;;5033078;28;20276;-68
2023/04/21 12:39:27;;;;;;;19.40;10.70;;;;;;;;;;5032321;28;20478;-68
2023/04/21 12:41:52;;;;;;;20.15;10.57;;;;;;;;;;5024012;28;20064;-69
2023/04/21 12:44:18;;;;;;;23.50;10.53;;;;;;;;;;5027048;28;20025;-69
2023/04/21 12:46:43;;;;;;;12.60;7.43;;;;;;;;;;5029234;28;20318;-69
2023/04/21 12:49:09;;;;;;;12.93;5.78;;;;;;;;;;5030553;28;20386;-71
2023/04/21 12:51:35;;;;;;;9.93;5.25;;;;;;;;;;5028858;28;20021;-70
2023/04/21 12:54:00;;;;;;;14.27;6.85;;;;;;;;;;5033970;28;20482;-69
2023/04/21 12:56:25;;;;;;;14.20;6.37;;;;;;;;;;5032585;28;20494;-68
2023/04/21 12:58:51;;;;;;;12.25;7.78;;;;;;;;;;5030054;28;20276;-69
2023/04/21 13:01:16;;;;;;;13.68;7.80;;;;;;;;;;5027576;28;20031;-71
2023/04/21 13:03:41;;;;;;;12.20;7.67;;;;;;;;;;5029614;28;20364;-71
2023/04/21 13:06:07;;;;;;;11.10;6.65;;;;;;;;;;5030003;28;20298;-70
2023/04/21 13:08:32;;;;;;;10.75;5.78;;;;;;;;;;5031512;28;20017;-69
2023/04/21 13:10:57;;;;;;;9.63;5.03;;;;;;;;;;5028486;28;20017;-68
2023/04/21 13:13:23;;;;;;;10.35;6.07;;;;;;;;;;5033184;28;20467;-71
2023/04/21 13:15:48;;;;;;;10.65;5.45;;;;;;;;;;5029125;28;20482;-70
2023/04/21 13:18:13;;;;;;;8.23;4.33;;;;;;;;;;5032277;28;20032;-71
2023/04/21 13:20:38;;;;;;;11.93;6.82;;;;;;;;;;5030090;28;20632;-70
2023/04/21 13:23:03;;;;;;;14.63;8.50;;;;;;;;;;5030670;28;20033;-70
2023/04/21 13:25:29;;;;;;;13.65;5.72;;;;;;;;;;5030125;28;20021;-69
2023/04/21 13:27:54;;;;;;;13.17;7.33;;;;;;;;;;5030998;28;20017;-69
2023/04/21 13:30:19;;;;;;;11.65;6.53;;;;;;;;;;5030069;28;20290;-69
2023/04/21 13:32:44;;;;;;;14.60;7.60;;;;;;;;;;5027898;28;20040;-68
2023/04/21 13:35:10;;;;;;;10.07;4.70;;;;;;;;;;5031682;28;20069;-69
2023/04/21 13:37:35;;;;;;;17.98;5.80;;;;;;;;;;5027335;28;21817;-71
2023/04/21 13:40:01;;;;;;;11.38;4.75;;;;;;;;;;5033684;28;20449;-71
2023/04/21 13:42:27;;;;;;;9.75;4.88;;;;;;;;;;5027588;28;20029;-71
2023/04/21 13:44:52;;;;;;;11.35;6.10;;;;;;;;;;5023777;28;20037;-71
2023/04/21 13:47:17;;;;;;;11.53;5.70;;;;;;;;;;5028703;28;20025;-69
2023/04/21 13:49:42;;;;;;;9.77;5.63;;;;;;;;;;5028671;28;20264;-68
2023/04/21 13:52:07;;;;;;;7.30;4.30;;;;;;;;;;5029110;28;20360;-71
2023/04/21 13:54:33;;;;;;;10.40;6.23;;;;;;;;;;5028421;28;20053;-71
2023/04/21 13:56:58;;;;;;;12.53;5.97;;;;;;;;;;5026411;28;20279;-71
2023/04/21 13:59:23;;;;;;;9.53;5.93;;;;;;;;;;5030783;28;20025;-70
2023/04/21 14:01:48;;;;;;;10.00;4.53;;;;;;;;;;5028919;28;20288;-70
2023/04/21 14:04:13;;;;;;;10.60;4.10;;;;;;;;;;5029967;28;20284;-71
2023/04/21 14:06:39;;;;;;;6.00;2.83;;;;;;;;;;5030119;28;20474;-71
2023/04/21 14:09:05;;;;;;;10.05;4.80;;;;;;;;;;5029165;28;20260;-72
2023/04/21 14:11:30;;;;;;;6.00;3.10;;;;;;;;;;5031531;28;20553;-72